Time;durP1;ratioP1;P1;durP2;ratioP2;P2;SDS_P1;SDS_P2;PMS_P1;PMS_P2;Temp;Humidity;BMP_temperature;BMP_pressure;BME280_temperature;BME280_humidity;BME280_pressure;Samples;Min_cycle;Max_cycle;Signal;HPM_P1;HPM_P2
2022/06/27 00:01:34;;;;;;;;;3.33;3.00;;;;;24.17;55.01;101228.41;5058698;28;45343;-68
2022/06/27 00:04:00;;;;;;;;;4.00;4.00;;;;;24.04;55.01;101218.22;5060726;28;45606;-67
2022/06/27 00:06:25;;;;;;;;;3.33;2.33;;;;;24.09;54.25;101212.00;5059846;28;46884;-67
2022/06/27 00:08:50;;;;;;;;;5.00;3.67;;;;;24.01;55.08;101208.44;5059168;28;45446;-68
2022/06/27 00:11:17;;;;;;;;;5.33;3.67;;;;;23.72;55.87;101202.69;5061950;28;45316;-68
2022/06/27 00:13:43;;;;;;;;;3.00;3.00;;;;;23.79;54.76;101204.34;5058547;28;45490;-68
2022/06/27 00:16:09;;;;;;;;;3.33;2.33;;;;;23.76;54.56;101199.22;5051457;28;45294;-68
2022/06/27 00:18:35;;;;;;;;;4.00;3.00;;;;;23.79;54.81;101209.88;5056134;28;45365;-68
2022/06/27 00:21:00;;;;;;;;;4.00;4.00;;;;;23.89;55.18;101215.78;5054574;28;45457;-67
2022/06/27 00:23:25;;;;;;;;;2.67;2.67;;;;;23.91;54.82;101223.88;5058348;28;45737;-68
2022/06/27 00:25:51;;;;;;;;;6.00;4.00;;;;;23.88;55.72;101218.78;5057078;28;46618;-67
2022/06/27 00:28:16;;;;;;;;;2.67;2.67;;;;;23.82;55.67;101216.88;5059867;28;45531;-66
2022/06/27 00:30:42;;;;;;;;;4.00;3.00;;;;;23.67;55.41;101226.38;5059284;28;45233;-66
2022/06/27 00:33:07;;;;;;;;;2.67;2.67;;;;;23.60;55.33;101208.91;5060655;28;46387;-66
2022/06/27 00:35:33;;;;;;;;;4.33;3.00;;;;;23.59;55.58;101200.84;5056092;28;45405;-68
2022/06/27 00:37:58;;;;;;;;;3.00;3.00;;;;;23.61;55.81;101191.22;5058805;28;45326;-68
2022/06/27 00:40:24;;;;;;;;;3.00;3.00;;;;;23.64;54.95;101187.16;5058344;28;45406;-67
2022/06/27 00:42:49;;;;;;;;;3.33;3.00;;;;;23.70;55.28;101193.72;5060485;28;45469;-67
2022/06/27 00:45:14;;;;;;;;;3.00;2.33;;;;;23.71;54.89;101196.28;5060647;28;45434;-66
2022/06/27 00:47:40;;;;;;;;;3.00;3.00;;;;;23.63;55.46;101199.31;5054219;28;45350;-67
2022/06/27 00:50:06;;;;;;;;;4.00;2.67;;;;;23.71;55.56;101201.81;5047428;28;45396;-66
2022/06/27 00:52:32;;;;;;;;;4.00;3.00;;;;;23.67;56.49;101206.09;5057139;28;46393;-66
2022/06/27 00:54:58;;;;;;;;;5.00;4.00;;;;;23.55;56.46;101202.34;5055074;28;46447;-66
2022/06/27 00:57:23;;;;;;;;;4.00;3.00;;;;;23.49;55.90;101208.78;5055564;28;45410;-66
2022/06/27 00:59:49;;;;;;;;;5.00;3.00;;;;;23.48;56.46;101205.16;5064542;28;45258;-66
2022/06/27 01:02:14;;;;;;;;;4.67;4.67;;;;;23.51;57.29;101218.59;5067297;28;45584;-67
2022/06/27 01:04:40;;;;;;;;;4.00;4.00;;;;;23.61;57.06;101209.78;5054121;28;45267;-67
2022/06/27 01:07:07;;;;;;;;;1.00;1.00;;;;;23.61;55.75;101220.88;5052468;28;45232;-67
2022/06/27 01:09:33;;;;;;;;;3.67;3.67;;;;;23.60;55.43;101227.50;5056405;28;45357;-67
2022/06/27 01:11:58;;;;;;;;;6.00;6.00;;;;;23.69;56.31;101231.72;5067664;27;45603;-66
2022/06/27 01:14:24;;;;;;;;;4.00;4.00;;;;;23.71;55.33;101226.81;5058021;28;45761;-67
2022/06/27 01:16:50;;;;;;;;;4.67;4.00;;;;;23.72;54.47;101222.94;5054284;28;45531;-67
2022/06/27 01:19:16;;;;;;;;;5.00;4.00;;;;;23.82;54.16;101226.06;5058763;28;45284;-67
2022/06/27 01:21:50;;;;;;;;;3.00;3.00;;;;;23.77;54.34;101223.13;5057407;28;45373;-66
2022/06/27 01:24:17;;;;;;;;;4.00;3.00;;;;;23.79;53.96;101218.22;5058672;28;45418;-67
2022/06/27 01:26:43;;;;;;;;;3.00;3.00;;;;;23.72;54.76;101225.72;5059134;28;45511;-66
2022/06/27 01:29:10;;;;;;;;;0.67;0.67;;;;;23.56;55.18;101212.38;5059676;28;45270;-66
2022/06/27 01:31:36;;;;;;;;;2.33;2.33;;;;;23.62;54.83;101215.09;5047407;28;45485;-67
2022/06/27 01:34:02;;;;;;;;;4.00;2.33;;;;;23.70;53.82;101214.00;5049498;28;46540;-67
2022/06/27 01:36:43;;;;;;;;;3.00;3.00;;;;;23.70;54.79;101222.31;5045303;28;45265;-66
2022/06/27 01:39:10;;;;;;;;;2.00;2.00;;;;;23.61;56.29;101223.66;5055113;28;45339;-67
2022/06/27 01:41:37;;;;;;;;;3.00;3.00;;;;;23.58;56.08;101232.44;5049794;28;45185;-67
2022/06/27 01:44:03;;;;;;;;;2.67;2.00;;;;;23.48;55.75;101232.91;5056732;28;45266;-66
2022/06/27 01:46:43;;;;;;;;;3.00;3.00;;;;;23.48;55.99;101229.28;5052665;28;45355;-66
2022/06/27 01:49:09;;;;;;;;;4.00;2.33;;;;;23.20;58.26;101229.59;5059696;28;45497;-67
2022/06/27 01:51:35;;;;;;;;;3.00;3.00;;;;;23.36;56.17;101239.34;5054923;28;45373;-66
2022/06/27 01:54:01;;;;;;;;;1.67;1.67;;;;;23.35;54.82;101221.84;5060818;28;46620;-66
2022/06/27 01:56:27;;;;;;;;;2.00;2.00;;;;;23.55;54.57;101232.88;5058417;28;45402;-66
2022/06/27 01:58:57;;;;;;;;;3.33;3.00;;;;;23.56;53.75;101227.09;5061150;28;45278;-67
2022/06/27 02:01:23;;;;;;;;;3.33;3.33;;;;;23.47;55.14;101225.63;5059854;28;45496;-67
2022/06/27 02:03:48;;;;;;;;;5.00;4.00;;;;;23.33;56.87;101218.44;5048577;28;47641;-67
2022/06/27 02:06:13;;;;;;;;;3.00;3.00;;;;;23.20;55.14;101222.13;5054070;28;45330;-66
2022/06/27 02:08:41;;;;;;;;;5.00;3.00;;;;;23.22;55.59;101221.91;5056970;28;45223;-66
2022/06/27 02:11:07;;;;;;;;;2.00;2.00;;;;;23.14;55.05;101214.69;5052854;28;45437;-66
2022/06/27 02:13:33;;;;;;;;;2.33;2.33;;;;;23.27;55.06;101213.78;5055099;28;45388;-67
2022/06/27 02:16:18;;;;;;;;;3.00;3.00;;;;;23.24;55.59;101206.75;5049474;28;45333;-67
2022/06/27 02:18:45;;;;;;;;;3.00;3.00;;;;;23.32;55.63;101210.34;5056514;28;45297;-66
2022/06/27 02:21:12;;;;;;;;;2.00;2.00;;;;;23.34;55.45;101199.88;5053121;28;45433;-66
2022/06/27 02:23:38;;;;;;;;;2.00;2.00;;;;;23.38;55.89;101204.75;5057104;28;46182;-66
2022/06/27 02:26:06;;;;;;;;;3.33;2.00;;;;;23.33;55.05;101195.41;5055458;28;45304;-66
2022/06/27 02:28:32;;;;;;;;;1.67;1.67;;;;;23.29;56.49;101201.41;5057772;28;45382;-66
2022/06/27 02:30:58;;;;;;;;;1.00;1.00;;;;;23.29;56.31;101218.03;5060109;28;45262;-66
2022/06/27 02:33:32;;;;;;;;;1.67;1.67;;;;;23.26;55.83;101221.25;5060948;28;46335;-66
2022/06/27 02:36:00;;;;;;;;;2.67;2.67;;;;;23.28;57.92;101230.19;5058532;28;45349;-66
2022/06/27 02:38:27;;;;;;;;;5.00;3.67;;;;;23.22;56.49;101227.47;5060601;28;45548;-67
2022/06/27 02:40:54;;;;;;;;;3.00;3.00;;;;;23.24;55.47;101222.53;5059683;28;45322;-66
2022/06/27 02:43:21;;;;;;;;;4.00;2.00;;;;;23.28;55.36;101210.78;5055002;28;45426;-66
2022/06/27 02:45:48;;;;;;;;;2.00;2.00;;;;;23.38;56.24;101217.78;5053604;28;45354;-66
2022/06/27 02:48:18;;;;;;;;;3.00;3.00;;;;;23.37;55.36;101230.81;5057131;28;45303;-66
2022/06/27 02:50:47;;;;;;;;;3.67;3.00;;;;;23.37;55.21;101228.03;5058715;28;45559;-66
2022/06/27 02:53:18;;;;;;;;;2.33;2.33;;;;;23.43;54.77;101229.06;5057862;28;46120;-67
2022/06/27 02:55:48;;;;;;;;;2.33;2.33;;;;;23.55;55.10;101235.63;5060714;28;45848;-66
2022/06/27 02:58:21;;;;;;;;;3.33;3.00;;;;;23.51;55.70;101228.84;5051963;28;45667;-66
2022/06/27 03:00:49;;;;;;;;;2.00;2.00;;;;;23.43;54.85;101229.91;5053471;28;45344;-67
2022/06/27 03:03:16;;;;;;;;;2.00;2.00;;;;;23.30;56.88;101228.03;5050347;28;46317;-66
2022/06/27 03:05:54;;;;;;;;;1.67;1.67;;;;;23.39;56.09;101234.19;5045208;28;45342;-67
2022/06/27 03:08:20;;;;;;;;;1.67;1.67;;;;;23.45;54.74;101236.06;5059087;28;45365;-66
2022/06/27 03:10:45;;;;;;;;;3.67;2.33;;;;;23.42;55.81;101230.13;5048017;28;45267;-66
2022/06/27 03:13:10;;;;;;;;;4.00;3.67;;;;;23.39;55.26;101216.69;5060574;28;48655;-66
2022/06/27 03:15:36;;;;;;;;;2.00;2.00;;;;;23.54;55.32;101217.28;5055180;28;45292;-66
2022/06/27 03:18:01;;;;;;;;;1.00;1.00;;;;;23.58;55.04;101218.56;5056754;28;45373;-66
2022/06/27 03:20:27;;;;;;;;;2.00;2.00;;;;;23.51;55.80;101218.59;5059348;28;45306;-66
2022/06/27 03:22:52;;;;;;;;;4.00;2.00;;;;;23.43;56.48;101215.19;5055839;28;46714;-68
2022/06/27 03:25:18;;;;;;;;;4.33;4.33;;;;;23.42;56.04;101210.72;5077748;28;45432;-68
2022/06/27 03:27:43;;;;;;;;;4.00;2.67;;;;;23.38;56.41;101210.28;5054559;28;45227;-68
2022/06/27 03:30:09;;;;;;;;;4.00;3.00;;;;;23.37;55.27;101216.09;5065126;28;45468;-68
2022/06/27 03:32:34;;;;;;;;;5.67;3.00;;;;;23.32;55.68;101210.34;5056459;28;46967;-68
2022/06/27 03:35:00;;;;;;;;;2.00;2.00;;;;;23.37;55.82;101208.63;5056441;28;45385;-67
2022/06/27 03:37:25;;;;;;;;;3.33;2.67;;;;;23.46;56.95;101209.19;5051114;28;45614;-68
2022/06/27 03:39:52;;;;;;;;;3.00;3.00;;;;;23.30;55.24;101210.56;5052995;28;45516;-66
2022/06/27 03:42:17;;;;;;;;;6.00;5.00;;;;;23.37;54.98;101211.41;5054375;28;45416;-68
2022/06/27 03:44:42;;;;;;;;;3.67;3.67;;;;;23.34;55.19;101202.66;5058136;28;45376;-68
2022/06/27 03:47:08;;;;;;;;;5.00;5.00;;;;;23.32;55.27;101190.91;5060966;28;45431;-68
2022/06/27 03:52:17;;;;;;;;;10.33;8.33;;;;;23.45;55.15;101205.56;5061831;28;45520;-67
2022/06/27 03:54:42;;;;;;;;;3.00;3.00;;;;;23.60;54.24;101210.84;5061546;28;45432;-67
2022/06/27 03:57:07;;;;;;;;;3.00;3.00;;;;;23.65;53.85;101203.56;5061233;28;45424;-67
2022/06/27 03:59:33;;;;;;;;;2.67;2.67;;;;;23.71;54.71;101203.75;5057602;28;45424;-67
2022/06/27 04:01:58;;;;;;;;;3.00;3.00;;;;;23.72;54.35;101208.22;5061873;28;46133;-67
2022/06/27 04:04:23;;;;;;;;;5.00;5.00;;;;;23.67;55.44;101206.97;5057747;28;45452;-67
2022/06/27 04:06:49;;;;;;;;;2.67;2.67;;;;;23.64;54.80;101209.34;5049774;28;45536;-67
2022/06/27 04:09:14;;;;;;;;;3.67;3.67;;;;;23.63;54.94;101219.59;5057804;28;45279;-66
2022/06/27 04:11:39;;;;;;;;;3.33;3.33;;;;;23.51;54.58;101218.59;5049665;28;47293;-66
2022/06/27 04:14:05;;;;;;;;;3.00;3.00;;;;;23.61;54.35;101218.94;5061431;28;45297;-67
2022/06/27 04:16:30;;;;;;;;;3.67;3.67;;;;;23.68;54.55;101227.22;5052886;28;45300;-67
2022/06/27 04:18:55;;;;;;;;;5.00;4.00;;;;;23.63;54.58;101244.56;5054749;28;45708;-67
2022/06/27 04:21:21;;;;;;;;;4.00;4.00;;;;;23.71;55.09;101240.66;5051200;28;46266;-67
2022/06/27 04:23:46;;;;;;;;;3.67;3.00;;;;;23.58;55.42;101246.31;5055559;28;45362;-67
2022/06/27 04:26:12;;;;;;;;;4.67;3.67;;;;;23.44;54.99;101250.19;5054545;28;45313;-67
2022/06/27 04:28:37;;;;;;;;;2.00;2.00;;;;;23.28;56.09;101244.06;5071356;28;45250;-67
2022/06/27 04:31:02;;;;;;;;;3.00;3.00;;;;;23.26;55.95;101254.50;5059638;28;47184;-68
2022/06/27 04:33:29;;;;;;;;;3.67;3.67;;;;;23.21;55.21;101259.88;5058851;28;45400;-67
2022/06/27 04:35:54;;;;;;;;;4.67;4.67;;;;;23.20;55.68;101272.03;5058535;28;45336;-67
2022/06/27 04:38:20;;;;;;;;;3.67;2.67;;;;;23.12;55.87;101280.56;5057683;28;45660;-66
2022/06/27 04:40:46;;;;;;;;;6.00;3.00;;;;;23.26;55.40;101278.63;5062029;28;45317;-68
2022/06/27 04:43:12;;;;;;;;;5.00;4.00;;;;;23.36;54.63;101286.47;5058289;28;45685;-68
2022/06/27 04:45:39;;;;;;;;;3.00;3.00;;;;;23.40;55.13;101280.25;5055849;28;45397;-68
2022/06/27 04:48:07;;;;;;;;;3.33;3.00;;;;;23.47;54.69;101288.56;5061251;28;45750;-69
2022/06/27 04:50:34;;;;;;;;;5.67;4.00;;;;;23.63;53.59;101288.09;5060686;28;46224;-68
2022/06/27 04:53:01;;;;;;;;;3.00;3.00;;;;;23.75;53.50;101277.13;5056431;28;45308;-68
2022/06/27 04:55:27;;;;;;;;;5.00;3.67;;;;;23.80;53.37;101280.09;5062142;28;45341;-66
2022/06/27 04:57:52;;;;;;;;;3.33;2.33;;;;;23.79;53.00;101264.53;5056586;28;45426;-68
2022/06/27 05:00:19;;;;;;;;;6.00;3.33;;;;;23.66;57.13;101262.69;5060776;28;47399;-67
2022/06/27 05:02:45;;;;;;;;;3.67;3.00;;;;;23.64;56.88;101262.06;5055816;28;45390;-68
2022/06/27 05:05:10;;;;;;;;;3.00;2.67;;;;;23.67;57.67;101256.03;5062883;28;45303;-68
2022/06/27 05:07:36;;;;;;;;;3.67;3.67;;;;;23.65;59.73;101247.13;5058606;28;45427;-68
2022/06/27 05:10:02;;;;;;;;;3.00;3.00;;;;;23.53;58.01;101238.63;5058487;28;45326;-68
2022/06/27 05:12:29;;;;;;;;;3.33;3.33;;;;;23.49;59.90;101234.59;5048590;28;45615;-68
2022/06/27 05:14:55;;;;;;;;;6.00;5.00;;;;;23.62;59.05;101236.44;5060982;28;45377;-67
2022/06/27 05:17:21;;;;;;;;;3.00;3.00;;;;;23.58;59.15;101249.06;5057472;28;45422;-68
2022/06/27 05:19:46;;;;;;;;;3.00;3.00;;;;;23.53;58.31;101254.41;5057628;28;45630;-68
2022/06/27 05:22:12;;;;;;;;;5.00;5.00;;;;;23.58;58.44;101257.41;5059403;28;45331;-69
2022/06/27 05:24:37;;;;;;;;;4.00;4.00;;;;;23.78;57.43;101247.03;5054213;28;45606;-69
2022/06/27 05:27:03;;;;;;;;;3.00;3.00;;;;;23.89;57.82;101249.06;5050562;28;45970;-68
2022/06/27 05:29:28;;;;;;;;;4.33;3.00;;;;;23.95;58.05;101250.97;5057647;28;46242;-68
2022/06/27 05:31:54;;;;;;;;;3.67;2.33;;;;;24.02;59.66;101243.47;5054037;28;45389;-68
2022/06/27 05:34:20;;;;;;;;;6.67;4.33;;;;;23.89;57.94;101242.69;5059041;28;45282;-70
2022/06/27 05:36:45;;;;;;;;;3.67;3.00;;;;;23.92;58.48;101270.84;5057390;28;45277;-67
2022/06/27 05:39:11;;;;;;;;;6.00;4.00;;;;;24.52;56.28;101284.31;5057125;28;46474;-69
2022/06/27 05:41:36;;;;;;;;;3.00;3.00;;;;;24.73;55.31;101258.88;5060434;28;45478;-67
2022/06/27 05:44:03;;;;;;;;;4.67;4.00;;;;;24.64;53.51;101263.03;5053133;28;45394;-68
2022/06/27 05:46:28;;;;;;;;;4.00;2.33;;;;;24.35;54.17;101282.09;5051349;28;45586;-68
2022/06/27 05:48:54;;;;;;;;;4.00;3.00;;;;;24.47;55.38;101285.00;5056400;28;45969;-70
2022/06/27 05:51:20;;;;;;;;;5.00;3.00;;;;;24.58;54.35;101284.25;5046293;28;45438;-68
2022/06/27 05:53:47;;;;;;;;;4.00;3.00;;;;;24.62;53.63;101293.81;5060525;28;45415;-67
2022/06/27 05:56:13;;;;;;;;;3.33;3.33;;;;;24.50;53.66;101278.13;5057235;28;45555;-67
2022/06/27 05:58:39;;;;;;;;;3.00;3.00;;;;;24.38;53.18;101286.34;5052951;28;45655;-67
2022/06/27 06:01:06;;;;;;;;;5.67;4.00;;;;;24.24;54.71;101290.31;5053046;28;45231;-68
2022/06/27 06:03:33;;;;;;;;;4.33;4.33;;;;;24.32;53.63;101287.25;5068767;28;45290;-67
2022/06/27 06:05:58;;;;;;;;;3.00;3.00;;;;;24.42;53.85;101296.78;5057613;28;45511;-69
2022/06/27 06:08:25;;;;;;;;;3.33;3.33;;;;;24.52;53.37;101292.66;5052339;28;45382;-68
2022/06/27 06:10:51;;;;;;;;;4.00;4.00;;;;;24.46;53.12;101305.53;5060286;28;45282;-69
2022/06/27 06:13:16;;;;;;;;;3.00;3.00;;;;;24.53;52.48;101311.88;5051478;28;45323;-67
2022/06/27 06:15:42;;;;;;;;;2.33;2.33;;;;;24.45;52.75;101309.38;5062942;28;45437;-66
2022/06/27 06:18:08;;;;;;;;;4.00;4.00;;;;;24.34;52.96;101305.38;5050200;28;47828;-67
2022/06/27 06:20:33;;;;;;;;;5.00;5.00;;;;;24.34;52.48;101318.41;5059561;28;45392;-69
2022/06/27 06:23:00;;;;;;;;;3.00;3.00;;;;;24.17;52.64;101300.59;5053579;28;45312;-69
2022/06/27 06:25:26;;;;;;;;;3.00;3.00;;;;;24.34;52.00;101279.53;5058997;28;45576;-69
2022/06/27 06:27:56;;;;;;;;;3.00;3.00;;;;;24.41;52.43;101278.41;5053632;28;46200;-70
2022/06/27 06:30:22;;;;;;;;;4.00;4.00;;;;;24.26;52.19;101302.03;5046764;28;45382;-69
2022/06/27 06:32:49;;;;;;;;;3.67;3.67;;;;;24.45;51.50;101326.03;5054154;28;45423;-69
2022/06/27 06:35:15;;;;;;;;;4.33;3.33;;;;;24.70;51.32;101329.66;5053623;28;45239;-68
2022/06/27 06:37:42;;;;;;;;;4.33;3.00;;;;;24.60;51.00;101328.47;5056450;28;46062;-69
2022/06/27 06:40:08;;;;;;;;;3.33;3.33;;;;;24.59;50.96;101324.84;5063666;28;45306;-68
2022/06/27 06:42:35;;;;;;;;;5.67;5.67;;;;;24.67;50.84;101343.16;5057415;28;45314;-69
2022/06/27 06:45:01;;;;;;;;;2.00;2.00;;;;;24.53;51.25;101331.31;5057507;28;45329;-70
2022/06/27 06:47:26;;;;;;;;;6.33;5.00;;;;;24.43;52.06;101344.84;5056745;28;45672;-69
2022/06/27 06:49:52;;;;;;;;;3.67;3.67;;;;;24.56;51.09;101319.72;5060461;28;45504;-70
2022/06/27 06:52:18;;;;;;;;;3.00;3.00;;;;;24.96;50.88;101338.88;5047047;28;45471;-68
2022/06/27 06:54:45;;;;;;;;;4.00;4.00;;;;;25.08;50.37;101350.94;5057142;28;45316;-68
2022/06/27 06:57:10;;;;;;;;;5.00;3.67;;;;;24.92;50.45;101351.50;5055108;28;45352;-70
2022/06/27 06:59:36;;;;;;;;;4.33;4.33;;;;;24.66;50.61;101347.88;5049109;28;45288;-70
2022/06/27 07:02:03;;;;;;;;;4.67;3.33;;;;;24.59;52.09;101368.44;5055900;28;45373;-67
2022/06/27 07:04:29;;;;;;;;;5.33;5.33;;;;;24.90;51.12;101379.56;5053434;28;45438;-70
2022/06/27 07:06:56;;;;;;;;;5.67;4.00;;;;;25.06;51.29;101383.66;5047643;28;45397;-71
2022/06/27 07:09:21;;;;;;;;;3.00;3.00;;;;;24.80;50.70;101388.38;5054420;28;45485;-70
2022/06/27 07:11:46;;;;;;;;;4.00;3.00;;;;;24.50;52.13;101395.66;5048700;28;45536;-70
2022/06/27 07:14:13;;;;;;;;;3.33;2.00;;;;;24.06;52.99;101419.59;5048872;28;45468;-70
2022/06/27 07:16:38;;;;;;;;;4.00;4.00;;;;;24.08;52.68;101424.06;5049440;28;46276;-69
2022/06/27 07:19:08;;;;;;;;;3.67;3.67;;;;;24.01;53.89;101415.78;5051302;28;45455;-70
2022/06/27 07:21:34;;;;;;;;;5.00;5.00;;;;;24.04;53.21;101418.94;5051815;28;46248;-70
2022/06/27 07:24:05;;;;;;;;;4.33;4.33;;;;;24.27;52.03;101417.59;5051994;28;45362;-69
2022/06/27 07:26:31;;;;;;;;;5.00;4.00;;;;;24.26;52.28;101410.31;5053835;28;45508;-70
2022/06/27 07:28:57;;;;;;;;;4.67;3.67;;;;;23.79;53.25;101422.69;5053675;28;45349;-69
2022/06/27 07:31:23;;;;;;;;;4.00;4.00;;;;;24.01;53.12;101424.97;5055781;28;45544;-70
2022/06/27 07:33:51;;;;;;;;;6.00;4.33;;;;;24.37;52.91;101429.06;5054646;28;45327;-70
2022/06/27 07:36:20;;;;;;;;;11.67;7.00;;;;;24.65;51.30;101432.31;5057998;28;45526;-70
2022/06/27 07:38:47;;;;;;;;;8.00;5.00;;;;;24.43;52.13;101428.19;5053120;28;45324;-70
2022/06/27 07:41:15;;;;;;;;;5.00;2.00;;;;;23.88;53.12;101427.78;5041560;28;45253;-69
2022/06/27 07:43:43;;;;;;;;;4.33;4.33;;;;;24.03;52.48;101431.16;5048211;28;45529;-71
2022/06/27 07:46:10;;;;;;;;;2.33;1.00;;;;;23.89;53.60;101415.59;5043993;28;45924;-69
2022/06/27 07:48:35;;;;;;;;;7.00;7.00;;;;;23.91;53.42;101413.47;5048843;28;45232;-69
2022/06/27 07:51:00;;;;;;;;;8.00;8.00;;;;;24.39;52.62;101421.38;5046651;28;45194;-68
2022/06/27 07:53:26;;;;;;;;;6.33;4.00;;;;;24.72;51.21;101421.13;5049503;28;45199;-71
2022/06/27 07:55:58;;;;;;;;;7.00;7.00;;;;;24.98;51.27;101414.56;5059620;28;45261;-69
2022/06/27 07:58:35;;;;;;;;;11.33;7.00;;;;;25.03;50.30;101421.13;5052920;28;45647;-71
2022/06/27 08:01:06;;;;;;;;;8.00;6.67;;;;;25.16;50.65;101428.50;5057359;28;45294;-68
2022/06/27 08:03:36;;;;;;;;;5.00;5.00;;;;;25.49;49.42;101445.75;5058092;28;45380;-68
2022/06/27 08:06:04;;;;;;;;;13.33;11.33;;;;;25.79;48.42;101436.69;5063692;28;46210;-68
2022/06/27 08:08:32;;;;;;;;;4.00;4.00;;;;;26.05;47.19;101439.13;5057944;28;46220;-69
2022/06/27 08:10:57;;;;;;;;;6.67;5.33;;;;;26.14;46.99;101436.88;5056499;28;45508;-68
2022/06/27 08:13:24;;;;;;;;;4.33;4.33;;;;;26.03;47.20;101421.78;5054237;28;45536;-68
2022/06/27 08:15:50;;;;;;;;;4.33;3.00;;;;;26.21;46.33;101444.06;5060750;28;48277;-68
2022/06/27 08:18:17;;;;;;;;;4.00;4.00;;;;;26.47;45.69;101450.38;5056019;28;45523;-68
2022/06/27 08:20:43;;;;;;;;;5.33;3.67;;;;;26.55;45.55;101444.47;5049502;28;45383;-68
2022/06/27 08:23:09;;;;;;;;;4.67;4.67;;;;;26.53;45.63;101435.47;5051181;28;45407;-68
2022/06/27 08:25:35;;;;;;;;;4.00;4.00;;;;;26.59;45.07;101451.28;5068248;28;46655;-68
2022/06/27 08:28:01;;;;;;;;;4.00;4.00;;;;;26.37;44.54;101458.47;5053918;28;45484;-68
2022/06/27 08:30:28;;;;;;;;;3.00;3.00;;;;;26.21;44.39;101460.78;5054021;28;45409;-68
2022/06/27 08:32:59;;;;;;;;;2.33;2.33;;;;;26.02;45.45;101470.22;5058204;28;45689;-68
2022/06/27 08:35:26;;;;;;;;;6.00;4.33;;;;;25.16;46.68;101487.75;5054838;28;45454;-70
2022/06/27 08:37:52;;;;;;;;;6.00;4.67;;;;;24.77;48.30;101497.19;5060723;28;45496;-69
2022/06/27 08:40:19;;;;;;;;;3.33;3.33;;;;;24.68;49.45;101484.66;5054789;27;45336;-68
2022/06/27 08:42:46;;;;;;;;;7.00;5.00;;;;;24.62;50.26;101466.09;5054944;28;45576;-68
2022/06/27 08:45:15;;;;;;;;;4.00;4.00;;;;;24.65;50.38;101471.22;5057891;28;48040;-70
2022/06/27 08:47:41;;;;;;;;;5.00;3.33;;;;;24.06;52.11;101472.34;5059149;28;45441;-68
2022/06/27 08:50:08;;;;;;;;;6.67;3.33;;;;;24.29;54.64;101484.88;5061646;28;45444;-68
2022/06/27 08:52:39;;;;;;;;;1.00;0.00;;;;;24.33;54.42;101472.22;5059014;28;45541;-69
2022/06/27 08:55:08;;;;;;;;;6.00;4.33;;;;;24.65;53.28;101476.75;5057285;28;46427;-68
2022/06/27 08:57:41;;;;;;;;;4.67;3.67;;;;;24.92;50.54;101459.94;5053854;28;45373;-69
2022/06/27 09:00:08;;;;;;;;;1.00;1.00;;;;;24.65;48.21;101462.88;5058259;28;45499;-68
2022/06/27 09:02:41;;;;;;;;;2.33;2.33;;;;;24.83;49.80;101474.09;5054763;28;45330;-68
2022/06/27 09:05:15;;;;;;;;;5.00;4.33;;;;;24.94;49.06;101475.31;5057253;28;45494;-69
2022/06/27 09:07:55;;;;;;;;;2.00;2.00;;;;;25.17;48.59;101463.59;5053237;28;45477;-71
2022/06/27 09:10:39;;;;;;;;;5.33;2.00;;;;;25.95;46.70;101449.94;5059631;28;45271;-70
2022/06/27 09:13:11;;;;;;;;;3.67;3.67;;;;;25.98;46.49;101458.69;5072525;28;47473;-71
2022/06/27 09:15:53;;;;;;;;;3.00;3.00;;;;;25.91;44.88;101465.44;5061672;28;46951;-70
2022/06/27 09:18:34;;;;;;;;;2.33;2.33;;;;;26.16;45.01;101457.81;5050490;28;45927;-68
2022/06/27 09:21:04;;;;;;;;;2.33;1.00;;;;;26.10;45.44;101464.31;5051526;28;45424;-68
2022/06/27 09:23:49;;;;;;;;;1.00;1.00;;;;;26.02;45.61;101469.34;5053742;28;45504;-69
2022/06/27 09:26:23;;;;;;;;;3.00;3.00;;;;;25.61;46.35;101472.81;5047960;28;45858;-69
2022/06/27 09:29:00;;;;;;;;;7.00;5.33;;;;;25.90;46.47;101474.88;5056501;28;45341;-69
2022/06/27 09:31:28;;;;;;;;;4.00;4.00;;;;;26.55;43.91;101466.75;5052720;28;45782;-68
2022/06/27 09:34:05;;;;;;;;;6.00;4.33;;;;;26.42;44.43;101467.81;5056524;28;45545;-68
2022/06/27 09:36:32;;;;;;;;;5.00;5.00;;;;;26.52;44.65;101472.81;5059854;28;46261;-69
2022/06/27 09:38:59;;;;;;;;;5.00;3.33;;;;;26.48;42.28;101468.78;5056223;28;45421;-68
2022/06/27 09:41:29;;;;;;;;;3.33;2.00;;;;;26.95;42.11;101470.69;5058946;28;45480;-68
2022/06/27 09:44:00;;;;;;;;;3.00;3.00;;;;;26.89;41.94;101466.00;5071190;27;45467;-69
2022/06/27 09:46:27;;;;;;;;;2.00;2.00;;;;;26.99;41.29;101445.94;5058874;28;47587;-69
2022/06/27 09:48:54;;;;;;;;;2.00;2.00;;;;;27.36;41.45;101464.19;5054693;28;45411;-69
2022/06/27 09:51:21;;;;;;;;;4.00;3.00;;;;;27.59;39.47;101468.97;5053570;28;45390;-68
2022/06/27 09:53:48;;;;;;;;;4.00;3.00;;;;;27.57;39.81;101462.75;5055440;28;45251;-69
2022/06/27 09:56:15;;;;;;;;;3.00;3.00;;;;;27.12;40.51;101471.69;5055997;28;47272;-69
2022/06/27 09:58:41;;;;;;;;;1.33;1.33;;;;;26.85;40.04;101470.38;5053430;28;45417;-69
2022/06/27 10:01:08;;;;;;;;;3.67;2.00;;;;;26.75;40.04;101461.72;5051109;28;45503;-69
2022/06/27 10:03:36;;;;;;;;;2.00;1.33;;;;;26.98;39.03;101459.03;5052743;28;45433;-69
2022/06/27 10:06:03;;;;;;;;;2.00;2.00;;;;;26.93;38.93;101461.72;5055527;28;47979;-69
2022/06/27 10:08:32;;;;;;;;;2.67;2.33;;;;;27.99;37.70;101466.22;5052591;28;45199;-69
2022/06/27 10:11:02;;;;;;;;;2.67;2.33;;;;;28.38;36.48;101464.56;5059363;28;45401;-68
2022/06/27 10:13:28;;;;;;;;;0.00;0.00;;;;;27.87;37.04;101462.59;5054462;28;45309;-70
2022/06/27 10:15:57;;;;;;;;;2.67;2.00;;;;;28.52;35.75;101460.38;5061950;28;45386;-68
2022/06/27 10:18:23;;;;;;;;;4.00;3.00;;;;;28.85;36.07;101461.59;5049954;28;45460;-69
2022/06/27 10:20:51;;;;;;;;;2.00;2.00;;;;;29.48;36.21;101466.03;5061580;28;45417;-68
2022/06/27 10:23:41;;;;;;;;;3.00;3.00;;;;;29.88;34.81;101465.78;5052027;28;45652;-68
2022/06/27 10:26:02;;;;;;;;;4.00;1.00;;;;;30.15;35.35;101455.53;5052377;28;45387;-68
2022/06/27 10:28:27;;;;;;;;;1.00;1.00;;;;;30.23;33.35;101457.03;5053657;28;45425;-69
2022/06/27 10:30:58;;;;;;;;;4.67;4.00;;;;;29.89;33.94;101473.06;5053356;28;45613;-69
2022/06/27 10:33:23;;;;;;;;;1.33;1.33;;;;;29.55;34.37;101470.34;5054548;28;45329;-69
2022/06/27 10:35:55;;;;;;;;;2.00;2.00;;;;;30.28;34.17;101459.88;5062204;28;45372;-69
2022/06/27 10:38:27;;;;;;;;;3.00;3.00;;;;;30.95;32.32;101464.03;5054214;28;46110;-69
2022/06/27 10:40:57;;;;;;;;;3.00;3.00;;;;;30.58;31.86;101465.03;5052776;28;45591;-69
2022/06/27 10:43:35;;;;;;;;;5.67;4.00;;;;;30.69;30.06;101464.84;5052693;28;45549;-69
2022/06/27 10:46:21;;;;;;;;;1.67;1.67;;;;;29.87;28.92;101462.13;5054614;28;48048;-69
2022/06/27 10:48:49;;;;;;;;;3.67;2.67;;;;;29.74;30.48;101482.94;5056265;28;45361;-69
2022/06/27 10:51:33;;;;;;;;;0.00;0.00;;;;;29.69;28.56;101482.03;5057094;28;45346;-69
2022/06/27 10:53:58;;;;;;;;;4.33;3.33;;;;;29.35;29.76;101473.69;5059251;28;45336;-69
2022/06/27 10:56:29;;;;;;;;;4.00;2.00;;;;;29.30;30.09;101473.53;5056381;28;46165;-68
2022/06/27 10:58:56;;;;;;;;;1.33;1.33;;;;;29.38;30.85;101473.16;5053992;28;45161;-69
2022/06/27 11:01:22;;;;;;;;;1.00;1.00;;;;;30.23;28.88;101479.44;5051074;28;47764;-69
2022/06/27 11:03:49;;;;;;;;;1.00;1.00;;;;;30.13;30.14;101461.38;5049966;28;45563;-69
2022/06/27 11:06:15;;;;;;;;;4.00;2.00;;;;;30.31;28.57;101477.03;5052002;28;46889;-69
2022/06/27 11:08:42;;;;;;;;;3.00;3.00;;;;;30.56;28.27;101476.50;5051936;28;45356;-69
2022/06/27 11:11:14;;;;;;;;;2.00;2.00;;;;;30.22;27.92;101473.00;5049422;28;45448;-70
2022/06/27 11:13:43;;;;;;;;;3.00;2.00;;;;;29.66;29.50;101468.56;5054550;28;45370;-70
2022/06/27 11:16:33;;;;;;;;;1.00;1.00;;;;;30.01;27.92;101460.69;5050834;28;46088;-69
2022/06/27 11:21:54;;;;;;;;;1.00;1.00;;;;;30.40;26.98;101452.16;5045402;28;45601;-69
2022/06/27 11:24:20;;;;;;;;;3.00;1.00;;;;;30.45;27.13;101461.50;5058807;28;45372;-69
2022/06/27 11:26:47;;;;;;;;;3.00;1.00;;;;;30.70;26.73;101455.34;5051633;28;46724;-69
2022/06/27 11:32:07;;;;;;;;;1.00;1.00;;;;;30.31;27.97;101459.38;5057741;28;45388;-69
2022/06/27 11:34:36;;;;;;;;;0.67;0.67;;;;;30.36;26.67;101459.41;5061909;28;45401;-69